Time;durP1;ratioP1;P1;durP2;ratioP2;P2;SDS_P1;SDS_P2;PMS_P1;PMS_P2;Temp;Humidity;BMP_temperature;BMP_pressure;BME280_temperature;BME280_humidity;BME280_pressure;Samples;Min_cycle;Max_cycle;Signal;HPM_P1;HPM_P2
2021/11/07 00:00:39;;;;;;;31.13;15.33;;;;;;;5.76;93.90;98954.59;4761827;30;20649;-84
2021/11/07 00:03:13;;;;;;;28.30;15.80;;;;;;;5.76;93.46;98945.97;4776813;29;21014;-84
2021/11/07 00:05:46;;;;;;;28.70;15.43;;;;;;;5.72;93.47;98963.31;4778395;29;20676;-84
2021/11/07 00:08:40;;;;;;;31.43;17.00;;;;;;;5.72;93.07;98971.06;4778983;29;21185;-84
2021/11/07 00:11:19;;;;;;;29.87;15.17;;;;;;;5.78;93.63;98968.31;4781976;30;20655;-84
2021/11/07 00:13:50;;;;;;;27.70;15.60;;;;;;;5.80;93.33;98965.66;4784056;30;20649;-84
2021/11/07 00:16:24;;;;;;;31.70;16.30;;;;;;;5.80;93.72;98957.91;4781715;30;20644;-84
2021/11/07 00:19:11;;;;;;;34.57;16.87;;;;;;;5.79;93.48;98941.53;4780344;29;21309;-84
2021/11/07 00:21:48;;;;;;;28.37;15.10;;;;;;;5.79;93.06;98938.13;4780592;30;20657;-85
2021/11/07 00:24:21;;;;;;;31.87;16.33;;;;;;;5.75;93.07;98937.34;4780299;30;20776;-84
2021/11/07 00:26:56;;;;;;;30.13;16.80;;;;;;;5.73;93.24;98933.13;4776430;30;20688;-84
2021/11/07 00:29:26;;;;;;;26.80;15.13;;;;;;;5.75;93.12;98946.88;4780624;30;20689;-87
2021/11/07 00:32:03;;;;;;;31.70;16.93;;;;;;;5.76;93.37;98949.41;4777979;29;20692;-85
2021/11/07 00:37:21;;;;;;;29.60;15.87;;;;;;;5.84;93.22;98944.78;4750321;30;20649;-84
2021/11/07 00:40:04;;;;;;;29.63;16.33;;;;;;;5.85;93.21;98948.22;4778326;29;20688;-84
2021/11/07 00:42:41;;;;;;;29.03;15.30;;;;;;;5.86;92.52;98953.34;4781335;30;20702;-85
2021/11/07 00:45:22;;;;;;;28.90;15.43;;;;;;;5.86;92.99;98955.91;4795349;29;20641;-84
2021/11/07 00:48:01;;;;;;;31.10;16.03;;;;;;;5.88;93.11;98968.81;4796650;29;20744;-85
2021/11/07 00:50:40;;;;;;;33.93;18.20;;;;;;;5.92;93.32;98970.41;4761523;30;20652;-87
2021/11/07 00:53:21;;;;;;;27.33;16.13;;;;;;;5.93;93.22;98959.16;4764847;30;20641;-85
2021/11/07 00:55:52;;;;;;;28.40;16.40;;;;;;;5.93;93.24;98938.44;4793334;29;20672;-84
2021/11/07 00:58:32;;;;;;;38.60;18.13;;;;;;;5.95;92.43;98937.47;4763514;30;20679;-85
2021/11/07 01:01:03;;;;;;;31.00;17.00;;;;;;;5.95;92.96;98932.28;4761095;30;20642;-85
2021/11/07 01:03:32;;;;;;;34.00;16.50;;;;;;;5.97;92.86;98927.94;4766863;30;21341;-85
2021/11/07 01:06:01;;;;;;;31.20;17.73;;;;;;;5.97;93.18;98945.19;4780928;30;20744;-84
2021/11/07 01:08:30;;;;;;;38.47;17.90;;;;;;;5.98;92.75;98932.19;4766237;30;20640;-84
2021/11/07 01:11:00;;;;;;;35.20;18.03;;;;;;;6.01;93.11;98950.19;4780421;30;20637;-85
2021/11/07 01:13:30;;;;;;;33.50;17.63;;;;;;;6.01;92.59;98924.31;4787716;29;21046;-85
2021/11/07 01:15:59;;;;;;;30.73;17.93;;;;;;;6.02;92.88;98909.63;4776734;29;20732;-84
2021/11/07 01:18:27;;;;;;;33.23;17.47;;;;;;;6.00;92.67;98904.53;4776506;30;20713;-85
2021/11/07 01:20:56;;;;;;;32.83;17.70;;;;;;;6.00;92.50;98896.75;4779504;29;21383;-84
2021/11/07 01:23:28;;;;;;;29.17;16.87;;;;;;;6.00;92.46;98888.13;4776620;30;20702;-85
2021/11/07 01:26:01;;;;;;;32.33;17.87;;;;;;;6.01;92.92;98885.47;4776931;30;20760;-85
2021/11/07 01:28:37;;;;;;;33.57;17.23;;;;;;;6.00;92.43;98888.13;4760801;30;20641;-85
2021/11/07 01:31:06;;;;;;;31.10;16.97;;;;;;;5.98;92.14;98885.59;4786678;29;20744;-84
2021/11/07 01:33:35;;;;;;;35.70;19.13;;;;;;;5.99;92.48;98870.94;4791929;29;20645;-84
2021/11/07 01:36:14;;;;;;;33.10;17.87;;;;;;;6.02;92.49;98870.81;4756886;30;20653;-84
2021/11/07 01:38:48;;;;;;;31.73;18.17;;;;;;;5.95;92.35;98867.59;4776537;30;20655;-84
2021/11/07 01:41:22;;;;;;;32.20;16.40;;;;;;;5.91;92.49;98862.59;4774805;30;20675;-85
2021/11/07 01:43:53;;;;;;;31.27;17.10;;;;;;;5.89;92.32;98860.06;4777340;29;20641;-84
2021/11/07 01:46:28;;;;;;;32.90;17.47;;;;;;;5.87;92.51;98858.44;4761708;30;20697;-84
2021/11/07 01:49:02;;;;;;;30.43;17.60;;;;;;;5.83;91.77;98865.50;4760790;30;20649;-85
2021/11/07 01:51:32;;;;;;;30.93;17.77;;;;;;;5.74;92.26;98864.97;4773276;30;21350;-84
2021/11/07 01:54:09;;;;;;;29.20;15.97;;;;;;;5.72;92.29;98865.00;4777571;29;21285;-85
2021/11/07 01:56:37;;;;;;;29.67;16.70;;;;;;;5.73;92.90;98860.69;4791092;29;20772;-85
2021/11/07 01:59:07;;;;;;;29.80;16.23;;;;;;;5.74;92.44;98864.97;4760509;29;20740;-84
2021/11/07 02:01:35;;;;;;;31.47;16.83;;;;;;;5.76;92.85;98865.78;4764029;30;21214;-84
2021/11/07 02:04:04;;;;;;;30.20;16.87;;;;;;;5.78;92.81;98851.03;4778625;29;20777;-84
2021/11/07 02:06:32;;;;;;;26.73;15.83;;;;;;;5.83;92.86;98837.03;4756876;30;21492;-84
2021/11/07 02:09:00;;;;;;;30.13;15.40;;;;;;;5.83;92.81;98833.56;4771603;29;20652;-85
2021/11/07 02:11:29;;;;;;;27.50;15.20;;;;;;;5.83;92.47;98849.09;4772360;30;20646;-84
2021/11/07 02:13:58;;;;;;;29.03;16.07;;;;;;;5.84;91.82;98845.63;4779424;29;20650;-85
2021/11/07 02:16:27;;;;;;;26.10;15.50;;;;;;;5.83;91.89;98839.63;4779924;30;21048;-84
2021/11/07 02:18:56;;;;;;;26.97;14.97;;;;;;;5.86;92.26;98839.47;4777225;30;21232;-84
2021/11/07 02:21:26;;;;;;;24.30;14.47;;;;;;;5.87;92.08;98835.16;4775284;30;20645;-84
2021/11/07 02:24:00;;;;;;;27.13;15.33;;;;;;;5.85;91.85;98826.59;4783739;29;20676;-84
2021/11/07 02:26:28;;;;;;;30.60;16.70;;;;;;;5.87;92.26;98801.50;4769473;30;21250;-84
2021/11/07 02:28:59;;;;;;;27.10;14.63;;;;;;;5.88;92.54;98804.03;4783789;30;20740;-84
2021/11/07 02:31:28;;;;;;;29.30;15.50;;;;;;;5.92;91.94;98807.34;4783578;29;20706;-84
2021/11/07 02:33:56;;;;;;;26.00;15.17;;;;;;;5.91;92.37;98805.66;4782430;29;21014;-84
2021/11/07 02:36:25;;;;;;;24.27;14.40;;;;;;;5.91;92.17;98810.81;4760016;30;20649;-84
2021/11/07 02:38:54;;;;;;;26.13;15.03;;;;;;;5.91;91.74;98813.41;4781999;30;20649;-84
2021/11/07 02:41:22;;;;;;;24.80;13.87;;;;;;;5.90;92.13;98819.50;4792700;29;20641;-84
2021/11/07 02:43:52;;;;;;;20.33;11.97;;;;;;;5.88;92.19;98811.81;4779693;30;21106;-84
2021/11/07 02:46:20;;;;;;;25.83;14.23;;;;;;;5.87;92.39;98804.09;4779712;30;20673;-84
2021/11/07 02:48:51;;;;;;;26.40;13.73;;;;;;;5.86;91.12;98811.00;4761202;29;20657;-84
2021/11/07 02:51:24;;;;;;;22.30;13.70;;;;;;;5.83;91.58;98807.69;4783763;29;20636;-84
2021/11/07 02:53:59;;;;;;;22.83;13.50;;;;;;;5.82;91.89;98816.38;4768104;30;20638;-84
2021/11/07 02:56:27;;;;;;;25.60;14.70;;;;;;;5.83;91.25;98824.09;4793624;29;20712;-84
2021/11/07 02:58:55;;;;;;;23.63;14.50;;;;;;;5.79;91.58;98838.03;4775968;29;21127;-84
2021/11/07 03:01:25;;;;;;;22.40;14.40;;;;;;;5.75;91.27;98815.75;4772992;30;20649;-84
2021/11/07 03:03:59;;;;;;;22.30;13.27;;;;;;;5.71;91.18;98824.50;4760778;29;20664;-84
2021/11/07 03:06:27;;;;;;;24.33;14.57;;;;;;;5.67;91.28;98829.84;4778614;29;20710;-84
2021/11/07 03:08:55;;;;;;;21.47;13.40;;;;;;;5.64;91.13;98829.97;4777856;29;20748;-84
2021/11/07 03:11:25;;;;;;;21.93;13.40;;;;;;;5.62;90.91;98834.34;4778575;29;20641;-84
2021/11/07 03:13:58;;;;;;;20.03;12.77;;;;;;;5.58;91.13;98837.09;4763705;30;21290;-84
2021/11/07 03:16:26;;;;;;;20.80;12.60;;;;;;;5.54;90.42;98844.13;4764372;30;20631;-84
2021/11/07 03:18:55;;;;;;;21.83;13.33;;;;;;;5.48;90.35;98844.34;4776505;30;20700;-84
2021/11/07 03:21:23;;;;;;;21.93;12.70;;;;;;;5.45;90.77;98816.00;4770838;30;20735;-84
2021/11/07 03:23:52;;;;;;;21.00;12.80;;;;;;;5.42;90.86;98823.06;4775529;29;20666;-84
2021/11/07 03:26:23;;;;;;;21.37;12.27;;;;;;;5.37;90.97;98838.72;4762208;30;20656;-84
2021/11/07 03:28:57;;;;;;;18.40;11.87;;;;;;;5.34;90.88;98828.50;4778188;29;20718;-84
2021/11/07 03:31:31;;;;;;;23.00;13.10;;;;;;;5.32;90.27;98835.47;4758425;30;21341;-84
2021/11/07 03:34:02;;;;;;;22.03;13.70;;;;;;;5.32;90.58;98832.03;4775473;30;20664;-84
2021/11/07 03:36:42;;;;;;;21.57;13.17;;;;;;;5.29;90.77;98830.41;4762672;30;20701;-84
2021/11/07 03:39:12;;;;;;;20.97;12.63;;;;;;;5.26;91.09;98829.66;4774114;30;20685;-84
2021/11/07 03:41:41;;;;;;;19.10;12.37;;;;;;;5.16;90.51;98839.50;4776099;30;21559;-84
2021/11/07 03:44:11;;;;;;;22.10;11.97;;;;;;;5.11;90.57;98830.19;4762636;30;20687;-84
2021/11/07 03:46:40;;;;;;;18.70;12.00;;;;;;;5.05;89.86;98822.69;4774034;29;20652;-84
2021/11/07 03:49:09;;;;;;;20.27;12.73;;;;;;;4.99;90.47;98830.66;4776070;30;21210;-84
2021/11/07 03:51:38;;;;;;;21.60;13.20;;;;;;;4.96;90.09;98824.72;4759664;30;20650;-84
2021/11/07 03:54:08;;;;;;;21.97;13.60;;;;;;;4.90;90.14;98818.03;4762172;30;20664;-84
2021/11/07 03:56:36;;;;;;;22.47;13.20;;;;;;;4.87;90.68;98804.38;4787885;29;20672;-84
2021/11/07 03:59:05;;;;;;;21.33;12.17;;;;;;;4.81;90.73;98795.09;4774290;30;20653;-84
2021/11/07 04:01:36;;;;;;;21.00;12.73;;;;;;;4.77;89.77;98795.25;4760980;30;20649;-84
2021/11/07 04:04:04;;;;;;;20.30;11.97;;;;;;;4.76;89.43;98796.97;4761922;30;20661;-84
2021/11/07 04:06:33;;;;;;;20.80;12.30;;;;;;;4.72;90.96;98769.59;4758883;30;20646;-84
2021/11/07 04:09:02;;;;;;;24.77;12.97;;;;;;;4.73;91.47;98773.84;4762062;30;21116;-84
2021/11/07 04:11:30;;;;;;;18.27;11.33;;;;;;;4.68;90.99;98762.84;4776295;30;20661;-84
2021/11/07 04:13:58;;;;;;;24.30;13.43;;;;;;;4.66;91.30;98753.47;4777726;30;20641;-84
2021/11/07 04:16:26;;;;;;;24.33;13.83;;;;;;;4.64;91.58;98765.56;4761671;30;20678;-84
2021/11/07 04:18:55;;;;;;;23.83;13.70;;;;;;;4.62;90.75;98775.13;4776292;29;20653;-84
2021/11/07 04:21:24;;;;;;;23.20;13.17;;;;;;;4.63;91.91;98775.94;4771882;30;21210;-84
2021/11/07 04:23:52;;;;;;;22.70;12.73;;;;;;;4.63;92.06;98779.41;4778249;29;20740;-84
2021/11/07 04:26:21;;;;;;;22.37;12.63;;;;;;;4.64;91.17;98783.66;4789147;29;21220;-84
2021/11/07 04:28:50;;;;;;;19.80;12.70;;;;;;;4.60;91.04;98783.81;4779286;30;20673;-84
2021/11/07 04:31:18;;;;;;;19.37;11.47;;;;;;;4.56;91.01;98775.31;4770597;29;20732;-84
2021/11/07 04:33:46;;;;;;;22.53;13.53;;;;;;;4.52;91.58;98770.31;4777210;29;20637;-84
2021/11/07 04:36:16;;;;;;;23.27;12.70;;;;;;;4.48;90.87;98774.75;4779410;29;20751;-84
2021/11/07 04:38:44;;;;;;;22.40;13.47;;;;;;;4.52;91.36;98772.91;4758896;30;20638;-84
2021/11/07 04:41:17;;;;;;;23.00;12.93;;;;;;;4.50;91.43;98772.94;4776824;30;20641;-85
2021/11/07 04:43:46;;;;;;;19.57;11.97;;;;;;;4.46;90.74;98771.34;4762402;30;20729;-84
2021/11/07 04:46:15;;;;;;;23.70;13.10;;;;;;;4.44;90.69;98762.81;4763043;29;20650;-84
2021/11/07 04:48:44;;;;;;;21.47;11.83;;;;;;;4.43;90.54;98761.13;4779449;30;21094;-84
2021/11/07 04:51:13;;;;;;;19.87;12.53;;;;;;;4.34;88.88;98756.25;4782790;29;21228;-84
2021/11/07 04:53:43;;;;;;;20.27;12.27;;;;;;;4.23;88.64;98740.31;4783832;29;20646;-84
2021/11/07 04:56:11;;;;;;;19.50;11.30;;;;;;;4.24;89.39;98738.59;4766979;29;20677;-85
2021/11/07 04:58:40;;;;;;;19.17;11.97;;;;;;;4.24;89.95;98733.44;4764588;30;20745;-84
2021/11/07 05:01:08;;;;;;;19.97;12.60;;;;;;;4.20;89.68;98736.16;4783938;29;20716;-84
2021/11/07 05:03:36;;;;;;;23.70;12.60;;;;;;;4.20;89.95;98745.56;4778574;30;20667;-85
2021/11/07 05:06:04;;;;;;;24.63;14.07;;;;;;;4.18;89.61;98738.78;4766654;30;20987;-84
2021/11/07 05:08:33;;;;;;;18.87;11.50;;;;;;;4.15;90.03;98732.84;4779326;29;20669;-84
2021/11/07 05:11:02;;;;;;;18.90;11.50;;;;;;;4.07;88.93;98743.44;4766712;30;20653;-84
2021/11/07 05:13:30;;;;;;;19.00;11.90;;;;;;;4.04;88.37;98742.69;4763313;30;21339;-84
2021/11/07 05:15:59;;;;;;;21.33;12.43;;;;;;;4.02;89.43;98747.06;4761815;30;20692;-84
2021/11/07 05:18:27;;;;;;;22.03;11.77;;;;;;;4.05;89.12;98742.66;4778914;30;20652;-84
2021/11/07 05:20:55;;;;;;;29.63;12.13;;;;;;;4.07;89.01;98735.69;4777932;29;20650;-84
2021/11/07 05:23:23;;;;;;;43.23;12.00;;;;;;;4.06;89.76;98738.31;4794448;29;20640;-85
2021/11/07 05:25:52;;;;;;;53.87;11.87;;;;;;;4.02;89.89;98731.59;4790215;29;20773;-85
2021/11/07 05:28:21;;;;;;;30.57;11.93;;;;;;;3.99;89.68;98721.38;4784284;29;20947;-84
2021/11/07 05:30:50;;;;;;;41.50;11.60;;;;;;;3.94;90.09;98724.09;4778141;30;20715;-85
2021/11/07 05:33:18;;;;;;;56.47;11.90;;;;;;;3.90;89.73;98724.25;4776967;29;20650;-84
2021/11/07 05:35:47;;;;;;;68.90;13.00;;;;;;;3.89;89.95;98730.28;4765708;30;20736;-84
2021/11/07 05:38:15;;;;;;;58.43;12.50;;;;;;;3.90;91.43;98729.41;4763375;30;20637;-84
2021/11/07 05:40:43;;;;;;;36.93;9.93;;;;;;;3.90;90.42;98726.81;4769163;30;20740;-84
2021/11/07 05:43:12;;;;;;;35.87;10.83;;;;;;;3.83;90.25;98713.28;4776824;30;20644;-84
2021/11/07 05:45:41;;;;;;;31.97;11.63;;;;;;;3.76;90.67;98703.22;4791984;29;20660;-84
2021/11/07 05:48:09;;;;;;;29.03;9.87;;;;;;;3.70;90.72;98703.41;4781964;30;20769;-84
2021/11/07 05:50:38;;;;;;;26.77;10.20;;;;;;;3.70;91.16;98698.25;4763284;29;20656;-84
2021/11/07 05:53:06;;;;;;;28.23;9.27;;;;;;;3.69;90.44;98699.13;4764200;30;20653;-84
2021/11/07 05:55:34;;;;;;;23.13;8.93;;;;;;;3.67;90.97;98690.63;4775239;29;20673;-84
2021/11/07 05:58:03;;;;;;;20.63;8.97;;;;;;;3.72;90.14;98686.97;4760394;30;20649;-84
2021/11/07 06:00:32;;;;;;;17.17;10.57;;;;;;;3.71;90.64;98683.63;4781265;29;20638;-84
2021/11/07 06:03:06;;;;;;;14.03;8.73;;;;;;;3.69;90.84;98681.09;4781555;30;20723;-84
2021/11/07 06:05:35;;;;;;;14.23;9.33;;;;;;;3.64;90.69;98688.13;4779440;30;20634;-84
2021/11/07 06:08:03;;;;;;;19.27;10.00;;;;;;;3.60;89.74;98676.22;4776568;29;20684;-85
2021/11/07 06:10:35;;;;;;;26.13;10.97;;;;;;;3.58;89.99;98666.84;4779706;30;20676;-84
2021/11/07 06:13:03;;;;;;;22.40;10.93;;;;;;;3.53;90.38;98661.00;4782733;29;20638;-84
2021/11/07 06:15:31;;;;;;;19.10;11.40;;;;;;;3.50;89.94;98669.69;4780065;29;20672;-84
2021/11/07 06:18:00;;;;;;;23.13;12.53;;;;;;;3.53;91.01;98658.41;4778565;30;20706;-84
2021/11/07 06:20:29;;;;;;;23.50;13.47;;;;;;;3.58;90.79;98662.53;4774173;30;20643;-84
2021/11/07 06:22:58;;;;;;;18.67;12.00;;;;;;;3.66;91.86;98665.72;4783206;30;21309;-84
2021/11/07 06:25:26;;;;;;;20.70;13.43;;;;;;;3.74;92.14;98658.56;4791757;29;21148;-84
2021/11/07 06:27:58;;;;;;;18.83;11.60;;;;;;;3.81;92.04;98657.47;4783826;29;20719;-84
2021/11/07 06:30:26;;;;;;;21.57;12.33;;;;;;;3.89;91.88;98656.34;4777954;30;21198;-84
2021/11/07 06:32:54;;;;;;;21.13;13.80;;;;;;;3.92;92.04;98663.94;4765262;30;20648;-84
2021/11/07 06:35:23;;;;;;;20.93;12.97;;;;;;;3.96;91.71;98665.53;4764172;29;20733;-84
2021/11/07 06:37:52;;;;;;;18.43;12.37;;;;;;;4.03;92.19;98659.31;4767599;30;20710;-85
2021/11/07 06:40:21;;;;;;;20.50;13.00;;;;;;;4.13;90.54;98663.25;4756466;30;20652;-85
2021/11/07 06:42:49;;;;;;;20.07;12.10;;;;;;;4.24;90.76;98654.25;4777925;30;20650;-85
2021/11/07 06:45:18;;;;;;;18.70;12.90;;;;;;;4.30;90.55;98638.56;4779803;30;21234;-85
2021/11/07 06:47:47;;;;;;;21.83;12.57;;;;;;;4.33;89.57;98645.31;4775568;29;20784;-85
2021/11/07 06:50:15;;;;;;;18.43;12.07;;;;;;;4.42;89.51;98658.78;4782452;29;20734;-85
2021/11/07 06:52:45;;;;;;;16.30;11.30;;;;;;;4.60;90.01;98659.84;4774042;30;20656;-85
2021/11/07 06:55:17;;;;;;;17.77;12.50;;;;;;;4.80;89.84;98659.06;4784059;29;20756;-85
2021/11/07 06:57:46;;;;;;;18.53;11.60;;;;;;;5.00;88.89;98655.75;4758305;30;20630;-85
2021/11/07 07:00:17;;;;;;;20.87;11.90;;;;;;;5.18;88.83;98664.50;4773248;30;20724;-85
2021/11/07 07:02:46;;;;;;;20.20;12.67;;;;;;;5.39;88.80;98661.09;4760140;30;20650;-85
2021/11/07 07:05:17;;;;;;;20.50;12.50;;;;;;;5.58;88.30;98659.47;4780788;29;20749;-85
2021/11/07 07:07:50;;;;;;;17.47;12.50;;;;;;;5.74;87.80;98647.63;4779226;29;20649;-85
2021/11/07 07:10:24;;;;;;;18.27;12.20;;;;;;;5.93;86.97;98636.47;4771110;30;20734;-85
2021/11/07 07:12:57;;;;;;;17.80;11.97;;;;;;;6.07;86.31;98620.38;4783046;30;20642;-85
2021/11/07 07:15:28;;;;;;;15.50;11.17;;;;;;;6.26;86.32;98622.94;4791477;29;21023;-85
2021/11/07 07:18:06;;;;;;;16.53;12.10;;;;;;;6.35;86.31;98622.53;4760883;30;20646;-85
2021/11/07 07:20:54;;;;;;;19.70;13.10;;;;;;;6.40;86.20;98637.88;4773254;30;23908;-85
2021/11/07 07:23:50;;;;;;;16.77;11.47;;;;;;;6.56;86.16;98631.97;4763408;30;21015;-85
2021/11/07 07:29:18;;;;;;;19.33;12.50;;;;;;;6.96;86.90;98631.88;4757724;30;20658;-85
2021/11/07 07:31:53;;;;;;;17.70;11.93;;;;;;;7.09;84.82;98634.66;4769824;30;20650;-85
2021/11/07 07:34:23;;;;;;;15.80;11.60;;;;;;;7.25;83.45;98634.81;4790000;29;20653;-85
2021/11/07 07:36:52;;;;;;;17.23;12.37;;;;;;;7.34;83.64;98640.41;4774492;30;20656;-85
2021/11/07 07:39:20;;;;;;;17.57;12.90;;;;;;;7.31;82.21;98637.97;4781194;30;20673;-85
2021/11/07 07:41:50;;;;;;;16.23;11.70;;;;;;;7.24;83.71;98646.94;4780791;30;20654;-85
2021/11/07 07:44:19;;;;;;;15.20;11.10;;;;;;;7.31;83.99;98655.28;4773407;30;21332;-85
2021/11/07 07:46:47;;;;;;;17.57;12.47;;;;;;;7.41;85.14;98662.56;4776547;29;21513;-85
2021/11/07 07:49:17;;;;;;;17.80;12.10;;;;;;;7.69;85.08;98662.94;4776397;30;21316;-85
2021/11/07 07:51:46;;;;;;;14.70;11.20;;;;;;;7.97;85.37;98644.19;4777719;29;20677;-85
2021/11/07 07:54:15;;;;;;;16.70;12.10;;;;;;;7.96;83.71;98646.88;4768094;30;20706;-85
2021/11/07 07:56:43;;;;;;;15.57;11.90;;;;;;;7.82;83.92;98643.25;4781679;29;20752;-85
2021/11/07 07:59:12;;;;;;;14.33;10.73;;;;;;;7.73;83.96;98622.97;4766705;30;20645;-85
2021/11/07 08:01:41;;;;;;;15.70;10.97;;;;;;;7.69;84.72;98619.66;4762297;30;20656;-85
2021/11/07 08:04:09;;;;;;;15.83;11.37;;;;;;;7.69;84.71;98613.63;4780156;29;21202;-85
2021/11/07 08:06:37;;;;;;;14.10;10.23;;;;;;;7.68;84.46;98612.81;4778395;30;20964;-85
2021/11/07 08:09:06;;;;;;;15.40;11.10;;;;;;;7.66;84.65;98601.63;4776942;30;21239;-85
2021/11/07 08:11:34;;;;;;;13.13;10.20;;;;;;;7.63;84.50;98599.19;4778633;29;20666;-85
2021/11/07 08:14:02;;;;;;;14.33;10.60;;;;;;;7.64;85.05;98606.06;4778255;30;20645;-85
2021/11/07 08:16:32;;;;;;;14.57;10.57;;;;;;;7.63;84.63;98601.78;4783107;29;21226;-85
2021/11/07 08:19:00;;;;;;;13.70;10.57;;;;;;;7.66;83.58;98609.41;4764471;30;20641;-85
2021/11/07 08:21:31;;;;;;;14.43;10.60;;;;;;;7.71;84.02;98599.66;4795261;29;20649;-85
2021/11/07 08:24:01;;;;;;;13.83;9.13;;;;;;;7.79;84.80;98588.91;4782462;30;20731;-85
2021/11/07 08:26:30;;;;;;;16.00;10.13;;;;;;;7.89;84.51;98584.94;4761501;30;20733;-85
2021/11/07 08:28:58;;;;;;;25.33;10.93;;;;;;;8.00;86.06;98573.94;4779358;30;20634;-85
2021/11/07 08:31:28;;;;;;;15.73;10.67;;;;;;;8.10;85.45;98574.28;4781306;29;20683;-85
2021/11/07 08:33:58;;;;;;;13.90;10.20;;;;;;;8.22;84.17;98586.69;4778949;30;21144;-85
2021/11/07 08:36:35;;;;;;;13.87;9.77;;;;;;;8.27;86.08;98588.16;4758246;30;20760;-85
2021/11/07 08:39:08;;;;;;;14.90;10.70;;;;;;;8.26;85.11;98572.63;4766327;30;20641;-85
2021/11/07 08:41:43;;;;;;;13.03;10.20;;;;;;;8.26;84.39;98572.63;4779257;30;20762;-85
2021/11/07 09:01:17;;;;;;;11.27;8.40;;;;;;;8.51;84.93;98568.69;4778065;30;20733;-85
2021/11/07 09:03:53;;;;;;;13.00;8.70;;;;;;;8.55;85.59;98560.66;4787198;29;20661;-85
2021/11/07 09:06:40;;;;;;;12.10;8.90;;;;;;;8.67;85.19;98548.75;4773498;30;20666;-85
2021/11/07 09:09:11;;;;;;;10.53;8.00;;;;;;;8.80;83.19;98544.59;4781105;29;20650;-88
2021/11/07 09:11:48;;;;;;;15.33;9.10;;;;;;;8.93;83.72;98530.81;4763258;30;20739;-87
2021/11/07 09:14:17;;;;;;;11.00;7.87;;;;;;;9.04;82.88;98524.09;4779026;29;20644;-86
2021/11/07 09:16:46;;;;;;;11.17;7.80;;;;;;;9.20;83.57;98521.47;4778241;30;21012;-86
2021/11/07 09:19:18;;;;;;;12.67;8.80;;;;;;;9.32;83.00;98523.38;4778961;30;20712;-87
2021/11/07 09:21:51;;;;;;;12.67;8.60;;;;;;;9.37;82.70;98509.19;4763783;30;20626;-85
2021/11/07 09:24:34;;;;;;;13.73;10.03;;;;;;;9.41;82.80;98527.16;4777038;29;20664;-88
2021/11/07 09:27:09;;;;;;;14.60;9.20;;;;;;;9.44;82.70;98523.53;4777590;29;20640;-86
2021/11/07 09:29:47;;;;;;;12.27;8.80;;;;;;;9.47;82.14;98542.44;4786004;29;20645;-88
2021/11/07 09:32:27;;;;;;;17.20;12.23;;;;;;;9.47;81.87;98538.97;4781903;29;20642;-87
2021/11/07 09:34:59;;;;;;;9.93;7.87;;;;;;;9.47;81.13;98528.56;4765739;29;20678;-88
2021/11/07 09:37:39;;;;;;;12.60;8.17;;;;;;;9.52;81.23;98526.56;4770978;29;21241;-91
2021/11/07 09:40:12;;;;;;;10.97;7.90;;;;;;;9.56;80.94;98525.44;4766703;29;20714;-88
2021/11/07 09:42:56;;;;;;;11.00;7.90;;;;;;;9.67;81.39;98523.91;4796392;29;20646;-89
2021/11/07 09:45:31;;;;;;;11.67;7.33;;;;;;;9.77;81.55;98516.38;4783106;29;21250;-89
2021/11/07 09:48:03;;;;;;;12.00;8.20;;;;;;;9.78;81.68;98508.47;4786070;29;20644;-89
2021/11/07 09:50:31;;;;;;;9.70;7.00;;;;;;;9.82;80.71;98524.75;4783765;29;20718;-89
2021/11/07 09:53:04;;;;;;;10.83;7.40;;;;;;;9.87;80.23;98519.19;4805587;29;20641;-89
2021/11/07 09:55:33;;;;;;;9.47;6.83;;;;;;;9.87;79.53;98521.78;4767649;29;20683;-89
2021/11/07 09:58:03;;;;;;;10.07;7.10;;;;;;;9.89;80.15;98519.09;4781810;29;20665;-89
2021/11/07 10:00:39;;;;;;;11.70;8.67;;;;;;;9.92;80.23;98517.19;4768632;30;20700;-89
2021/11/07 10:03:07;;;;;;;10.07;6.90;;;;;;;9.88;79.33;98514.84;4766804;30;21191;-90
2021/11/07 10:05:38;;;;;;;8.47;6.23;;;;;;;9.87;78.90;98521.78;4797760;29;20811;-89
2021/11/07 10:08:10;;;;;;;12.10;6.50;;;;;;;9.86;80.13;98504.50;4782231;29;20668;-89
2021/11/07 10:10:45;;;;;;;10.10;6.17;;;;;;;9.86;79.79;98512.31;4782019;29;20661;-88
2021/11/07 10:13:20;;;;;;;7.30;5.70;;;;;;;9.87;79.46;98502.72;4782345;29;20696;-90
2021/11/07 10:15:51;;;;;;;11.37;7.37;;;;;;;9.84;78.13;98492.50;4763870;29;20697;-89
2021/11/07 10:18:25;;;;;;;6.87;5.53;;;;;;;9.82;79.50;98488.28;4782906;29;20637;-90
2021/11/07 10:20:59;;;;;;;8.90;5.90;;;;;;;9.85;79.72;98479.38;4778094;29;20632;-89
2021/11/07 10:23:32;;;;;;;10.77;6.83;;;;;;;10.00;79.80;98477.69;4786324;29;20728;-89
2021/11/07 10:26:11;;;;;;;8.17;5.80;;;;;;;10.07;78.60;98482.44;4787004;29;20717;-89
2021/11/07 10:28:45;;;;;;;10.30;5.63;;;;;;;10.14;78.16;98475.91;4770889;29;20727;-89
2021/11/07 10:31:18;;;;;;;7.37;5.67;;;;;;;10.23;78.94;98464.91;4784151;29;20700;-91
2021/11/07 10:34:13;;;;;;;7.40;5.90;;;;;;;10.37;77.47;98472.72;4778873;29;20648;-89
2021/11/07 10:37:12;;;;;;;7.43;5.37;;;;;;;10.53;77.57;98473.47;4782824;29;20740;-88
2021/11/07 10:40:01;;;;;;;8.10;5.83;;;;;;;10.60;77.48;98470.38;4768714;29;20661;-86
2021/11/07 10:42:51;;;;;;;6.73;4.87;;;;;;;10.67;76.59;98470.84;4770256;29;20729;-86
2021/11/07 10:45:24;;;;;;;6.93;5.43;;;;;;;10.66;76.13;98480.44;4784028;29;20636;-85
2021/11/07 10:53:59;;;;;;;19.20;12.70;;;;;;;10.86;77.47;98454.75;4723948;30;21361;-86
2021/11/07 10:56:28;;;;;;;12.97;8.10;;;;;;;10.97;75.76;98460.13;4741797;30;20776;-85
2021/11/07 10:58:56;;;;;;;8.17;5.67;;;;;;;11.03;77.15;98436.22;4740024;29;20677;-86
2021/11/07 11:01:26;;;;;;;6.67;5.13;;;;;;;11.08;77.34;98423.75;4779547;29;20650;-85
2021/11/07 11:03:59;;;;;;;8.53;5.43;;;;;;;11.12;75.33;98438.25;4765546;30;20715;-85
2021/11/07 11:06:28;;;;;;;5.83;5.10;;;;;;;11.09;76.98;98433.22;4760235;30;20662;-85
2021/11/07 11:08:59;;;;;;;7.37;5.10;;;;;;;11.16;75.83;98428.47;4759923;30;20645;-86
2021/11/07 11:11:33;;;;;;;6.13;4.60;;;;;;;11.06;75.01;98416.94;4778248;30;20673;-85
2021/11/07 11:14:09;;;;;;;7.00;6.10;;;;;;;10.96;74.30;98419.31;4791098;29;20849;-89
2021/11/07 11:16:53;;;;;;;6.30;5.20;;;;;;;10.97;74.68;98420.16;4765272;29;20636;-88
2021/11/07 11:19:59;;;;;;;5.97;4.60;;;;;;;11.00;75.22;98418.16;4780517;30;21096;-85
2021/11/07 11:22:39;;;;;;;7.50;4.53;;;;;;;11.18;75.47;98418.75;4771666;30;20691;-86
2021/11/07 11:25:28;;;;;;;5.70;4.70;;;;;;;11.41;76.23;98416.28;4781122;29;21038;-86
2021/11/07 11:28:12;;;;;;;7.47;5.33;;;;;;;11.52;76.65;98416.47;4759951;30;21213;-87
2021/11/07 11:31:09;;;;;;;6.97;4.10;;;;;;;11.49;76.36;98417.50;4779403;30;20633;-87
2021/11/07 11:33:41;;;;;;;5.80;4.50;;;;;;;11.34;76.96;98413.25;4775920;30;20730;-87
2021/11/07 11:36:20;;;;;;;7.90;6.20;;;;;;;11.07;75.16;98409.00;4766852;30;20629;-87
2021/11/07 11:38:53;;;;;;;4.80;3.97;;;;;;;10.93;76.37;98406.47;4780915;30;20645;-87
2021/11/07 11:41:26;;;;;;;5.93;4.60;;;;;;;10.85;77.69;98398.31;4779761;29;21042;-87
2021/11/07 11:43:56;;;;;;;6.60;4.50;;;;;;;10.78;78.11;98390.97;4783232;29;20665;-86
2021/11/07 11:46:39;;;;;;;6.57;4.47;;;;;;;10.75;77.22;98395.53;4787678;29;20646;-87
2021/11/07 11:49:24;;;;;;;5.47;4.13;;;;;;;10.79;75.32;98376.16;4783419;29;20655;-87
2021/11/07 12:00:40;;;;;;;6.50;4.43;;;;;;;11.23;76.94;98378.38;4778048;29;20649;-87
2021/11/07 12:03:16;;;;;;;5.65;4.43;;;;;;;11.28;77.81;98365.84;4780185;29;20767;-87
2021/11/07 12:05:49;;;;;;;6.17;4.43;;;;;;;11.36;76.64;98369.59;4781877;30;20247;-87
2021/11/07 12:12:52;;;;;;;6.10;4.20;;;;;;;11.52;76.75;98370.28;4777483;29;20649;-87
2021/11/07 12:15:27;;;;;;;6.33;4.87;;;;;;;11.62;76.55;98371.34;4798455;29;20683;-87
2021/11/07 12:18:05;;;;;;;7.53;5.70;;;;;;;11.71;76.71;98362.00;4765305;30;20693;-86
2021/11/07 12:20:36;;;;;;;6.90;5.13;;;;;;;11.81;76.31;98358.66;4784543;29;20733;-87
2021/11/07 12:23:17;;;;;;;7.60;5.80;;;;;;;11.86;75.81;98349.59;4766756;30;21215;-87
2021/11/07 12:25:45;;;;;;;5.90;4.53;;;;;;;11.88;76.43;98352.09;4784506;29;20655;-86
2021/11/07 12:28:15;;;;;;;6.90;5.00;;;;;;;11.93;77.30;98350.81;4768837;30;20626;-87
2021/11/07 12:30:44;;;;;;;7.10;5.67;;;;;;;11.94;76.29;98352.50;4770478;30;20638;-86